^^
Datos históricos de la estación: Murcia-Puente Tocinos
Diario Informe para Enero 9, 2019 Unidades:  Ambas    Ingés   Métrico
Diario Semanal Mensual Anual
  Máxima: Mínima: Promedio:
Temperatura: 104.5 °F /  40.3 °C 75.4 °F /  24.1 °C 90 °F /  32.2 °C
Punto de rocio: 72 °F /  22.2 °C 49.3 °F /  9.6 °C 57.2 °F /  14 °C
Humedad: 65% 17% 36%
Velocidad viento: 10.2mph /  16.4km/h - 4.2mph /  6.8km/h
Racha viento: 17.3mph /  27.8km/h - -
Viento- - Sur
Presión: 29.9 in /  1011.9 hPa 29.8 in /  1008.2 hPa -
Precipitación: 0 in /  0.0 mm    
 
 
Tabla de datos para Enero 9, 2019
Hora Temperatura Punto de rocio Presión Viento Velocidad viento Racha viento Humedad Intensidad lluvia(por hora) Nubes
00:04 83.3 °F /  28.5 °C 63.9 °F /  17.7 °C 29.9in /  1011.3hPa NO 1.4mph /  2.3km/h 4mph /  6.4km/h 52% 0in /  0.0mm
00:09 83.3 °F /  28.5 °C 63.3 °F /  17.4 °C 29.9in /  1011.3hPa NO 1.2mph /  1.9km/h 4.6mph /  7.4km/h 51% 0in /  0.0mm
00:14 83.5 °F /  28.6 °C 63.5 °F /  17.5 °C 29.9in /  1011.3hPa Calm   5mph /  8km/h 51.1% 0in /  0.0mm
00:19 83.5 °F /  28.6 °C 63.5 °F /  17.5 °C 29.9in /  1011.3hPa NNE 0.2mph /  0.3km/h 3.5mph /  5.6km/h 51% 0in /  0.0mm
00:24 83.5 °F /  28.6 °C 63.3 °F /  17.4 °C 29.9in /  1011.2hPa NNE 1.4mph /  2.2km/h 3.6mph /  5.8km/h 51% 0in /  0.0mm
00:29 83.3 °F /  28.5 °C 63.7 °F /  17.6 °C 29.9in /  1011.2hPa NE 1.5mph /  2.4km/h 4.6mph /  7.4km/h 51.6% 0in /  0.0mm
00:34 83.1 °F /  28.4 °C 63.9 °F /  17.7 °C 29.9in /  1011.2hPa NE 2mph /  3.2km/h 5mph /  8km/h 52.4% 0in /  0.0mm
00:39 82.9 °F /  28.3 °C 64 °F /  17.8 °C 29.9in /  1011.1hPa NE 1.9mph /  3.1km/h 3mph /  4.8km/h 53% 0in /  0.0mm
00:44 82.8 °F /  28.2 °C 64 °F /  17.8 °C 29.9in /  1011.1hPa NE 1.4mph /  2.2km/h 3.1mph /  5km/h 53.2% 0in /  0.0mm
00:49 82.8 °F /  28.2 °C 64.4 °F /  18 °C 29.9in /  1011.2hPa NNO 1.4mph /  2.2km/h 3.6mph /  5.8km/h 54% 0in /  0.0mm
00:54 82.6 °F /  28.1 °C 64.4 °F /  18 °C 29.9in /  1011.2hPa NO 1.4mph /  2.2km/h 4mph /  6.4km/h 54.3% 0in /  0.0mm
00:59 82.4 °F /  28 °C 64.8 °F /  18.2 °C 29.9in /  1011.2hPa NO 1.6mph /  2.5km/h 4mph /  6.4km/h 55.1% 0in /  0.0mm
01:04 82.2 °F /  27.9 °C 64.9 °F /  18.3 °C 29.9in /  1011.3hPa NO 2.4mph /  3.9km/h 4.6mph /  7.4km/h 56% 0in /  0.0mm
01:09 82 °F /  27.8 °C 65.5 °F /  18.6 °C 29.9in /  1011.3hPa NO 2.3mph /  3.7km/h 5mph /  8km/h 57% 0in /  0.0mm
01:14 82 °F /  27.8 °C 65.3 °F /  18.5 °C 29.9in /  1011.3hPa NO 1.8mph /  2.9km/h 2.3mph /  3.7km/h 57% 0in /  0.0mm
01:19 81.9 °F /  27.7 °C 65.3 °F /  18.5 °C 29.9in /  1011.3hPa NO 1.6mph /  2.5km/h 2mph /  3.2km/h 57.4% 0in /  0.0mm
01:24 81.9 °F /  27.7 °C 65.5 °F /  18.6 °C 29.9in /  1011.3hPa Calm     57.9% 0in /  0.0mm
01:29 81.9 °F /  27.7 °C 65.3 °F /  18.5 °C 29.9in /  1011.3hPa Calm   2.4mph /  3.9km/h 57.3% 0in /  0.0mm
01:34 81.9 °F /  27.7 °C 65.1 °F /  18.4 °C 29.9in /  1011.3hPa Calm   2.3mph /  3.7km/h 57% 0in /  0.0mm
01:39 81.7 °F /  27.6 °C 65.3 °F /  18.5 °C 29.9in /  1011.3hPa Calm   2.9mph /  4.7km/h 57.7% 0in /  0.0mm
01:44 81.7 °F /  27.6 °C 65.5 °F /  18.6 °C 29.9in /  1011.3hPa Calm   3mph /  4.8km/h 58% 0in /  0.0mm
01:49 81.7 °F /  27.6 °C 65.7 °F /  18.7 °C 29.9in /  1011.3hPa Calm   2.3mph /  3.7km/h 58.5% 0in /  0.0mm
01:54 81.7 °F /  27.6 °C 65.7 °F /  18.7 °C 29.9in /  1011.3hPa Calm   5.8mph /  9.3km/h 58.3% 0in /  0.0mm
01:59 81.7 °F /  27.6 °C 65.3 °F /  18.5 °C 29.9in /  1011.3hPa SSE 0.5mph /  0.8km/h 6mph /  9.7km/h 57.5% 0in /  0.0mm
02:04 81.7 °F /  27.6 °C 64.6 °F /  18.1 °C 29.9in /  1011.4hPa Sur 2.9mph /  4.6km/h 5mph /  8km/h 56.3% 0in /  0.0mm
02:09 81.7 °F /  27.6 °C 64.2 °F /  17.9 °C 29.9in /  1011.4hPa SSE 2.7mph /  4.4km/h 4.6mph /  7.4km/h 55.6% 0in /  0.0mm
02:14 81.7 °F /  27.6 °C 63.9 °F /  17.7 °C 29.9in /  1011.4hPa Sur 2mph /  3.2km/h 5mph /  8km/h 54.9% 0in /  0.0mm
02:19 81.7 °F /  27.6 °C 62.4 °F /  16.9 °C 29.9in /  1011.4hPa Sur 2.2mph /  3.5km/h 5mph /  8km/h 52.1% 0in /  0.0mm
02:24 81.7 °F /  27.6 °C 60.1 °F /  15.6 °C 29.9in /  1011.4hPa SSO 3.1mph /  5km/h 5mph /  8km/h 48.2% 0in /  0.0mm
02:29 81.7 °F /  27.6 °C 59.2 °F /  15.1 °C 29.9in /  1011.4hPa Sur 3mph /  4.9km/h 5mph /  8km/h 46.3% 0in /  0.0mm
02:34 81.9 °F /  27.7 °C 60.4 °F /  15.8 °C 29.9in /  1011.5hPa SSE 2.9mph /  4.7km/h 5mph /  8km/h 48.3% 0in /  0.0mm
02:39 82 °F /  27.8 °C 62.1 °F /  16.7 °C 29.9in /  1011.5hPa SSE 2.7mph /  4.4km/h 5mph /  8km/h 51% 0in /  0.0mm
02:44 81.9 °F /  27.7 °C 60.6 °F /  15.9 °C 29.9in /  1011.5hPa SSE 2mph /  3.2km/h 4.6mph /  7.4km/h 48.5% 0in /  0.0mm
02:49 81.7 °F /  27.6 °C 58.3 °F /  14.6 °C 29.9in /  1011.5hPa Sur 2.1mph /  3.4km/h 5mph /  8km/h 45.1% 0in /  0.0mm
02:54 81.5 °F /  27.5 °C 58.1 °F /  14.5 °C 29.9in /  1011.3hPa Sur 2.9mph /  4.7km/h 5mph /  8km/h 45% 0in /  0.0mm
02:59 81.3 °F /  27.4 °C 58.1 °F /  14.5 °C 29.9in /  1011.3hPa Sur 2.7mph /  4.3km/h 3.6mph /  5.8km/h 45.1% 0in /  0.0mm
03:04 81.3 °F /  27.4 °C 60.1 °F /  15.6 °C 29.9in /  1011.3hPa Sur 1.8mph /  2.9km/h 4mph /  6.4km/h 48.6% 0in /  0.0mm
03:09 81.1 °F /  27.3 °C 59.4 °F /  15.2 °C 29.9in /  1011.3hPa SSE 1.9mph /  3.1km/h 5.9mph /  9.5km/h 47.8% 0in /  0.0mm
03:14 80.8 °F /  27.1 °C 58.8 °F /  14.9 °C 29.9in /  1011.3hPa SSE 2.9mph /  4.7km/h 6mph /  9.7km/h 47.4% 0in /  0.0mm
03:19 80.4 °F /  26.9 °C 58.1 °F /  14.5 °C 29.9in /  1011.3hPa Sur 2.9mph /  4.7km/h 5.9mph /  9.5km/h 46.7% 0in /  0.0mm
03:24 80.2 °F /  26.8 °C 57.4 °F /  14.1 °C 29.9in /  1011.3hPa Sur 3.1mph /  5km/h 6mph /  9.7km/h 45.9% 0in /  0.0mm
03:29 80.1 °F /  26.7 °C 56.8 °F /  13.8 °C 29.9in /  1011.3hPa Sur 3.2mph /  5.2km/h 7.4mph /  11.9km/h 45.1% 0in /  0.0mm
03:34 79.9 °F /  26.6 °C 56.7 °F /  13.7 °C 29.9in /  1011.3hPa Sur 4mph /  6.4km/h 7mph /  11.3km/h 45% 0in /  0.0mm
03:39 79.9 °F /  26.6 °C 56.1 °F /  13.4 °C 29.9in /  1011.2hPa SSO 4mph /  6.4km/h 6mph /  9.7km/h 44.3% 0in /  0.0mm
03:44 79.7 °F /  26.5 °C 55.9 °F /  13.3 °C 29.9in /  1011.2hPa SSO 3.6mph /  5.8km/h 6mph /  9.7km/h 44% 0in /  0.0mm
03:49 79.9 °F /  26.6 °C 55.9 °F /  13.3 °C 29.9in /  1011.2hPa SO 3.5mph /  5.6km/h 5mph /  8km/h 44% 0in /  0.0mm
03:54 79.9 °F /  26.6 °C 55.6 °F /  13.1 °C 29.9in /  1011.1hPa SO 2.9mph /  4.7km/h 5.2mph /  8.4km/h 43.2% 0in /  0.0mm
03:59 79.9 °F /  26.6 °C 55.4 °F /  13 °C 29.9in /  1011.1hPa SO 2.9mph /  4.7km/h 5mph /  8km/h 43% 0in /  0.0mm
04:04 79.9 °F /  26.6 °C 55.4 °F /  13 °C 29.9in /  1011.1hPa SO 3.1mph /  5km/h 5mph /  8km/h 43% 0in /  0.0mm
04:09 79.9 °F /  26.6 °C 55 °F /  12.8 °C 29.9in /  1011.1hPa SSO 3.1mph /  5km/h 5.2mph /  8.4km/h 42.6% 0in /  0.0mm
04:14 79.9 °F /  26.6 °C 55 °F /  12.8 °C 29.9in /  1011.1hPa SSO 3.1mph /  5km/h 5.2mph /  8.4km/h 42.6% 0in /  0.0mm
04:19 79.7 °F /  26.5 °C 54.7 °F /  12.6 °C 29.9in /  1011.1hPa SO 3.1mph /  5km/h 5.9mph /  9.5km/h 42.1% 0in /  0.0mm
04:24 79.7 °F /  26.5 °C 54.7 °F /  12.6 °C 29.9in /  1011.1hPa SO 3.1mph /  5km/h 6mph /  9.7km/h 42% 0in /  0.0mm
04:29 79.7 °F /  26.5 °C 54.7 °F /  12.6 °C 29.9in /  1011.1hPa SSO 3mph /  4.9km/h 5.8mph /  9.3km/h 42% 0in /  0.0mm
04:34 79.7 °F /  26.5 °C 54.7 °F /  12.6 °C 29.9in /  1011.1hPa SO 2.9mph /  4.7km/h 6mph /  9.7km/h 42% 0in /  0.0mm
04:39 79.5 °F /  26.4 °C 54.5 °F /  12.5 °C 29.9in /  1011.1hPa SO 2.9mph /  4.7km/h 5.4mph /  8.7km/h 42% 0in /  0.0mm
04:44 79.5 °F /  26.4 °C 54.3 °F /  12.4 °C 29.9in /  1011.1hPa SO 3.1mph /  5km/h 6mph /  9.7km/h 42% 0in /  0.0mm
04:49 79.3 °F /  26.3 °C 54.3 °F /  12.4 °C 29.9in /  1011.1hPa SSO 3.2mph /  5.1km/h 6.2mph /  10km/h 42% 0in /  0.0mm
04:54 79.2 °F /  26.2 °C 54.7 °F /  12.6 °C 29.9in /  1011.1hPa Sur 3.6mph /  5.8km/h 6mph /  9.7km/h 42.9% 0in /  0.0mm
04:59 78.8 °F /  26 °C 54.5 °F /  12.5 °C 29.9in /  1011.1hPa Sur 3.6mph /  5.8km/h 6mph /  9.7km/h 43% 0in /  0.0mm
05:04 78.6 °F /  25.9 °C 54.1 °F /  12.3 °C 29.9in /  1011.1hPa SO 3.6mph /  5.8km/h 6mph /  9.7km/h 43% 0in /  0.0mm
05:09 78.4 °F /  25.8 °C 54.3 °F /  12.4 °C 29.9in /  1011.0hPa SO 3.5mph /  5.7km/h 6mph /  9.7km/h 43.3% 0in /  0.0mm
05:14 78.4 °F /  25.8 °C 54.7 °F /  12.6 °C 29.9in /  1011.0hPa SO 3.1mph /  5km/h 5.9mph /  9.5km/h 44% 0in /  0.0mm
05:19 78.3 °F /  25.7 °C 54.7 °F /  12.6 °C 29.9in /  1011.1hPa OSO 3.2mph /  5.1km/h 6.9mph /  11.1km/h 44% 0in /  0.0mm
05:24 78.3 °F /  25.7 °C 54.5 °F /  12.5 °C 29.9in /  1011.1hPa OSO 3.6mph /  5.8km/h 9.7mph /  15.6km/h 44% 0in /  0.0mm
05:29 78.1 °F /  25.6 °C 54.3 °F /  12.4 °C 29.9in /  1011.1hPa SO 3.7mph /  5.9km/h 10mph /  16.1km/h 44% 0in /  0.0mm
05:34 77.7 °F /  25.4 °C 54 °F /  12.2 °C 29.9in /  1011.1hPa SSO 4.3mph /  6.9km/h 9mph /  14.5km/h 43.9% 0in /  0.0mm
05:39 77.7 °F /  25.4 °C 53.8 °F /  12.1 °C 29.9in /  1011.0hPa SSO 4.3mph /  7km/h 8mph /  12.9km/h 43.5% 0in /  0.0mm
05:44 77.5 °F /  25.3 °C 53.4 °F /  11.9 °C 29.9in /  1011.0hPa Sur 4.7mph /  7.6km/h 8.1mph /  13km/h 43% 0in /  0.0mm
05:49 77.4 °F /  25.2 °C 53.1 °F /  11.7 °C 29.9in /  1011.2hPa Sur 4.8mph /  7.7km/h 9.2mph /  14.8km/h 43% 0in /  0.0mm
05:54 77 °F /  25 °C 52.9 °F /  11.6 °C 29.9in /  1011.2hPa SSO 5.2mph /  8.4km/h 9.2mph /  14.8km/h 43% 0in /  0.0mm
05:59 77 °F /  25 °C 52.9 °F /  11.6 °C 29.9in /  1011.2hPa SSO 5.2mph /  8.4km/h 9mph /  14.5km/h 43% 0in /  0.0mm
06:04 77 °F /  25 °C 53.2 °F /  11.8 °C 29.9in /  1011.2hPa SSO 5.2mph /  8.4km/h 8.7mph /  14km/h 43.9% 0in /  0.0mm
06:09 77 °F /  25 °C 53.4 °F /  11.9 °C 29.9in /  1011.2hPa SSO 5.2mph /  8.4km/h 9.2mph /  14.8km/h 44% 0in /  0.0mm
06:14 77 °F /  25 °C 53.4 °F /  11.9 °C 29.9in /  1011.2hPa SSO 5.4mph /  8.7km/h 9mph /  14.5km/h 44% 0in /  0.0mm
06:19 77 °F /  25 °C 53.4 °F /  11.9 °C 29.9in /  1011.2hPa Sur 5.3mph /  8.5km/h 8mph /  12.9km/h 44.1% 0in /  0.0mm
06:24 76.8 °F /  24.9 °C 54 °F /  12.2 °C 29.9in /  1011.2hPa SSO 4.7mph /  7.6km/h 8.1mph /  13km/h 45% 0in /  0.0mm
06:29 76.8 °F /  24.9 °C 54.5 °F /  12.5 °C 29.9in /  1011.2hPa Sur 4.7mph /  7.6km/h 8mph /  12.9km/h 46% 0in /  0.0mm
06:34 76.8 °F /  24.9 °C 54.5 °F /  12.5 °C 29.9in /  1011.5hPa SO 4.7mph /  7.6km/h 7.4mph /  11.9km/h 45.9% 0in /  0.0mm
06:39 77.2 °F /  25.1 °C 54.1 °F /  12.3 °C 29.9in /  1011.5hPa SO 4.6mph /  7.4km/h 7mph /  11.3km/h 45% 0in /  0.0mm
06:44 77.4 °F /  25.2 °C 54.3 °F /  12.4 °C 29.9in /  1011.5hPa SO 4mph /  6.5km/h 8.1mph /  13km/h 45% 0in /  0.0mm
06:49 77.4 °F /  25.2 °C 54.3 °F /  12.4 °C 29.9in /  1011.5hPa ONO 4mph /  6.4km/h 8mph /  12.9km/h 45% 0in /  0.0mm
06:54 77.4 °F /  25.2 °C 54.3 °F /  12.4 °C 29.9in /  1011.4hPa OSO 3.6mph /  5.8km/h 5mph /  8km/h 45% 0in /  0.0mm
06:59 77 °F /  25 °C 54 °F /  12.2 °C 29.9in /  1011.4hPa OSO 3.5mph /  5.6km/h 5.2mph /  8.4km/h 45% 0in /  0.0mm
07:04 76.8 °F /  24.9 °C 54 °F /  12.2 °C 29.9in /  1011.5hPa Oeste 3.1mph /  5km/h 5.4mph /  8.7km/h 45% 0in /  0.0mm
07:09 76.6 °F /  24.8 °C 53.8 °F /  12.1 °C 29.9in /  1011.5hPa OSO 3.1mph /  5km/h 5.8mph /  9.3km/h 45% 0in /  0.0mm
07:14 76.6 °F /  24.8 °C 53.6 °F /  12 °C 29.9in /  1011.5hPa OSO 3.1mph /  5km/h 6mph /  9.7km/h 45% 0in /  0.0mm
07:19 76.5 °F /  24.7 °C 53.4 °F /  11.9 °C 29.9in /  1011.5hPa OSO 3.1mph /  5km/h 5mph /  8km/h 45% 0in /  0.0mm
07:24 76.5 °F /  24.7 °C 53.4 °F /  11.9 °C 29.9in /  1011.4hPa SO 3.1mph /  5km/h 5.8mph /  9.3km/h 45% 0in /  0.0mm
07:29 76.6 °F /  24.8 °C 53.6 °F /  12 °C 29.9in /  1011.4hPa ONO 3mph /  4.9km/h 6mph /  9.7km/h 45% 0in /  0.0mm
07:34 76.6 °F /  24.8 °C 54 °F /  12.2 °C 29.9in /  1011.5hPa Oeste 2.9mph /  4.7km/h 4mph /  6.4km/h 45.4% 0in /  0.0mm
07:39 76.6 °F /  24.8 °C 54.3 °F /  12.4 °C 29.9in /  1011.5hPa SSO 2.8mph /  4.5km/h 4.6mph /  7.4km/h 46.2% 0in /  0.0mm
07:44 76.5 °F /  24.7 °C 55.4 °F /  13 °C 29.9in /  1011.5hPa ESE 2.4mph /  3.9km/h 5mph /  8km/h 48.2% 0in /  0.0mm
07:49 76.1 °F /  24.5 °C 55.9 °F /  13.3 °C 29.9in /  1011.6hPa SE 2.4mph /  3.9km/h 5mph /  8km/h 49.6% 0in /  0.0mm
07:54 75.7 °F /  24.3 °C 55.8 °F /  13.2 °C 29.9in /  1011.6hPa SSE 2.4mph /  3.9km/h 5.8mph /  9.3km/h 50% 0in /  0.0mm
07:59 75.4 °F /  24.1 °C 55.4 °F /  13 °C 29.9in /  1011.6hPa Sur 2.5mph /  4km/h 6mph /  9.7km/h 49.9% 0in /  0.0mm
08:04 75.4 °F /  24.1 °C 55.4 °F /  13 °C 29.9in /  1011.6hPa SSE 2.9mph /  4.7km/h 5mph /  8km/h 49.9% 0in /  0.0mm
08:09 75.6 °F /  24.2 °C 55 °F /  12.8 °C 29.9in /  1011.6hPa Sur 2.8mph /  4.5km/h 5mph /  8km/h 49% 0in /  0.0mm
08:14 75.7 °F /  24.3 °C 55.2 °F /  12.9 °C 29.9in /  1011.6hPa Sur 2.4mph /  3.9km/h 5mph /  8km/h 49% 0in /  0.0mm
08:19 76.1 °F /  24.5 °C 55 °F /  12.8 °C 29.9in /  1011.6hPa SSO 2.4mph /  3.9km/h 4.7mph /  7.6km/h 48.1% 0in /  0.0mm
08:24 76.6 °F /  24.8 °C 55.2 °F /  12.9 °C 29.9in /  1011.5hPa SSO 2.4mph /  3.9km/h 5.4mph /  8.7km/h 47.5% 0in /  0.0mm
08:29 77 °F /  25 °C 54.9 °F /  12.7 °C 29.9in /  1011.4hPa SO 2.5mph /  4km/h 6mph /  9.7km/h 46.4% 0in /  0.0mm
08:34 77.5 °F /  25.3 °C 55 °F /  12.8 °C 29.9in /  1011.5hPa SO 3.1mph /  5km/h 6mph /  9.7km/h 45.9% 0in /  0.0mm
08:39 77.9 °F /  25.5 °C 54.7 °F /  12.6 °C 29.9in /  1011.5hPa OSO 3mph /  4.9km/h 5mph /  8km/h 44.9% 0in /  0.0mm
08:44 78.4 °F /  25.8 °C 54.7 °F /  12.6 °C 29.9in /  1011.5hPa SSO 2.9mph /  4.7km/h 5.8mph /  9.3km/h 44.1% 0in /  0.0mm
08:49 78.8 °F /  26 °C 54.9 °F /  12.7 °C 29.9in /  1011.6hPa SO 3mph /  4.8km/h 6mph /  9.7km/h 43.8% 0in /  0.0mm
08:54 79.2 °F /  26.2 °C 54.9 °F /  12.7 °C 29.9in /  1011.6hPa SO 3.6mph /  5.8km/h 5.2mph /  8.4km/h 43.3% 0in /  0.0mm
08:59 79.3 °F /  26.3 °C 54.9 °F /  12.7 °C 29.9in /  1011.6hPa OSO 3.5mph /  5.6km/h 5.2mph /  8.4km/h 43% 0in /  0.0mm
09:04 79.7 °F /  26.5 °C 54.9 °F /  12.7 °C 29.9in /  1011.7hPa SO 2.9mph /  4.7km/h 5mph /  8km/h 42.5% 0in /  0.0mm
09:09 80.2 °F /  26.8 °C 55 °F /  12.8 °C 29.9in /  1011.7hPa SO 2.8mph /  4.5km/h 5.2mph /  8.4km/h 42% 0in /  0.0mm
09:14 80.6 °F /  27 °C 55.2 °F /  12.9 °C 29.9in /  1011.7hPa Sur 2.4mph /  3.9km/h 5mph /  8km/h 41.8% 0in /  0.0mm
09:19 81 °F /  27.2 °C 55 °F /  12.8 °C 29.9in /  1011.8hPa SSO 2.4mph /  3.9km/h 5mph /  8km/h 41% 0in /  0.0mm
09:24 81.7 °F /  27.6 °C 55.6 °F /  13.1 °C 29.9in /  1011.8hPa SSO 2.4mph /  3.9km/h 5mph /  8km/h 40.9% 0in /  0.0mm
09:29 82.2 °F /  27.9 °C 55.4 °F /  13 °C 29.9in /  1011.8hPa SSO 2.4mph /  3.9km/h 5.4mph /  8.7km/h 39.9% 0in /  0.0mm
09:34 82.6 °F /  28.1 °C 55.2 °F /  12.9 °C 29.9in /  1011.8hPa SSO 2.4mph /  3.9km/h 6.9mph /  11.1km/h 39.1% 0in /  0.0mm
09:39 82.9 °F /  28.3 °C 54.7 °F /  12.6 °C 29.9in /  1011.8hPa OSO 2.5mph /  4km/h 7mph /  11.3km/h 38.1% 0in /  0.0mm
09:44 83.3 °F /  28.5 °C 54 °F /  12.2 °C 29.9in /  1011.8hPa OSO 3.1mph /  5km/h 7mph /  11.3km/h 36.4% 0in /  0.0mm
09:49 83.8 °F /  28.8 °C 53.2 °F /  11.8 °C 29.9in /  1011.8hPa SO 3.3mph /  5.3km/h 8.5mph /  13.7km/h 35.1% 0in /  0.0mm
09:54 84 °F /  28.9 °C 52.9 °F /  11.6 °C 29.9in /  1011.8hPa SO 4.3mph /  6.9km/h 9mph /  14.5km/h 34.2% 0in /  0.0mm
09:59 84.4 °F /  29.1 °C 52.9 °F /  11.6 °C 29.9in /  1011.8hPa SO 4.5mph /  7.2km/h 9.7mph /  15.6km/h 34% 0in /  0.0mm
10:04 84.7 °F /  29.3 °C 53.1 °F /  11.7 °C 29.9in /  1011.9hPa SO 5.2mph /  8.4km/h 10mph /  16.1km/h 33.8% 0in /  0.0mm
10:09 85.1 °F /  29.5 °C 52.7 °F /  11.5 °C 29.9in /  1011.9hPa SO 5.2mph /  8.4km/h 9mph /  14.5km/h 33% 0in /  0.0mm
10:14 85.5 °F /  29.7 °C 53.1 °F /  11.7 °C 29.9in /  1011.9hPa SSO 5.2mph /  8.4km/h 8mph /  12.9km/h 33% 0in /  0.0mm
10:19 85.6 °F /  29.8 °C 53.2 °F /  11.8 °C 29.9in /  1011.9hPa SSO 5.2mph /  8.4km/h 9.2mph /  14.8km/h 32.8% 0in /  0.0mm
10:24 86 °F /  30 °C 53.2 °F /  11.8 °C 29.9in /  1011.9hPa SSO 5.2mph /  8.4km/h 10.7mph /  17.2km/h 32.6% 0in /  0.0mm
10:29 86.4 °F /  30.2 °C 53.4 °F /  11.9 °C 29.9in /  1011.9hPa Sur 5.3mph /  8.6km/h 11mph /  17.7km/h 32.4% 0in /  0.0mm
10:34 86.9 °F /  30.5 °C 53.2 °F /  11.8 °C 29.9in /  1011.9hPa SSO 6.2mph /  10km/h 11mph /  17.7km/h 31.8% 0in /  0.0mm
10:39 87.6 °F /  30.9 °C 52.9 °F /  11.6 °C 29.9in /  1011.8hPa SSO 6mph /  9.7km/h 9mph /  14.5km/h 30.7% 0in /  0.0mm
10:44 88.3 °F /  31.3 °C 52.5 °F /  11.4 °C 29.9in /  1011.8hPa SSO 5.2mph /  8.4km/h 9.7mph /  15.6km/h 29.5% 0in /  0.0mm
10:49 89.1 °F /  31.7 °C 52.3 °F /  11.3 °C 29.9in /  1011.8hPa Sur 5.3mph /  8.5km/h 10mph /  16.1km/h 28.8% 0in /  0.0mm
10:54 89.2 °F /  31.8 °C 52.3 °F /  11.3 °C 29.9in /  1011.8hPa Sur 5.9mph /  9.5km/h 9.7mph /  15.6km/h 28.5% 0in /  0.0mm
10:59 90 °F /  32.2 °C 52.5 °F /  11.4 °C 29.9in /  1011.8hPa SO 5.7mph /  9.1km/h 10mph /  16.1km/h 28.1% 0in /  0.0mm
11:04 90.3 °F /  32.4 °C 52 °F /  11.1 °C 29.9in /  1011.8hPa SO 4.7mph /  7.6km/h 9.2mph /  14.8km/h 27.2% 0in /  0.0mm
11:09 90.7 °F /  32.6 °C 52.2 °F /  11.2 °C 29.9in /  1011.8hPa SSO 4.8mph /  7.7km/h 11.5mph /  18.5km/h 27% 0in /  0.0mm
11:14 90.9 °F /  32.7 °C 52.3 °F /  11.3 °C 29.9in /  1011.8hPa SO 5.4mph /  8.7km/h 12mph /  19.3km/h 27% 0in /  0.0mm
11:19 91 °F /  32.8 °C 52.3 °F /  11.3 °C 29.9in /  1011.8hPa SO 5.5mph /  8.8km/h 9.7mph /  15.6km/h 27% 0in /  0.0mm
11:24 91.2 °F /  32.9 °C 52.5 °F /  11.4 °C 29.9in /  1011.8hPa SSO 5.9mph /  9.5km/h 10mph /  16.1km/h 27% 0in /  0.0mm
11:29 91.8 °F /  33.2 °C 52.5 °F /  11.4 °C 29.9in /  1011.8hPa OSO 5.7mph /  9.1km/h 8.1mph /  13km/h 26.5% 0in /  0.0mm
11:34 92.1 °F /  33.4 °C 52.5 °F /  11.4 °C 29.9in /  1011.8hPa Sur 4mph /  6.5km/h 8mph /  12.9km/h 26.1% 0in /  0.0mm
11:39 92.7 °F /  33.7 °C 52.9 °F /  11.6 °C 29.9in /  1011.8hPa OSO 4mph /  6.5km/h 7mph /  11.3km/h 26% 0in /  0.0mm
11:44 93 °F /  33.9 °C 53.1 °F /  11.7 °C 29.9in /  1011.8hPa SO 4.3mph /  6.9km/h 8.7mph /  14km/h 26% 0in /  0.0mm
11:49 93.4 °F /  34.1 °C 53.1 °F /  11.7 °C 29.9in /  1011.8hPa OSO 4.3mph /  6.9km/h 9mph /  14.5km/h 25.7% 0in /  0.0mm
11:54 93.6 °F /  34.2 °C 53.1 °F /  11.7 °C 29.9in /  1011.7hPa SO 4mph /  6.5km/h 8.7mph /  14km/h 25.6% 0in /  0.0mm
11:59 94.1 °F /  34.5 °C 53.2 °F /  11.8 °C 29.9in /  1011.7hPa SO 4mph /  6.5km/h 9.2mph /  14.8km/h 25.3% 0in /  0.0mm
12:04 94.6 °F /  34.8 °C 53.2 °F /  11.8 °C 29.9in /  1011.7hPa SO 4.3mph /  6.9km/h 9.2mph /  14.8km/h 24.9% 0in /  0.0mm
12:09 95 °F /  35 °C 52.9 °F /  11.6 °C 29.9in /  1011.7hPa SSO 4.3mph /  6.9km/h 9.2mph /  14.8km/h 24.3% 0in /  0.0mm
12:14 95.4 °F /  35.2 °C 52.9 °F /  11.6 °C 29.9in /  1011.7hPa SO 4.3mph /  6.9km/h 9mph /  14.5km/h 24% 0in /  0.0mm
12:19 95.7 °F /  35.4 °C 53.1 °F /  11.7 °C 29.9in /  1011.7hPa Oeste 4.3mph /  6.9km/h 9.7mph /  15.6km/h 23.8% 0in /  0.0mm
12:24 96.3 °F /  35.7 °C 52.9 °F /  11.6 °C 29.9in /  1011.6hPa SSO 4.3mph /  6.9km/h 10mph /  16.1km/h 23.4% 0in /  0.0mm
12:29 96.3 °F /  35.7 °C 52.5 °F /  11.4 °C 29.9in /  1011.6hPa SSO 4.5mph /  7.2km/h 9.2mph /  14.8km/h 23% 0in /  0.0mm
12:34 96.3 °F /  35.7 °C 52.3 °F /  11.3 °C 29.9in /  1011.6hPa Sur 5.4mph /  8.7km/h 9mph /  14.5km/h 23% 0in /  0.0mm
12:39 96.6 °F /  35.9 °C 52.3 °F /  11.3 °C 29.9in /  1011.5hPa SO 5.3mph /  8.5km/h 9.2mph /  14.8km/h 22.7% 0in /  0.0mm
12:44 97.2 °F /  36.2 °C 52.5 °F /  11.4 °C 29.9in /  1011.5hPa SO 4.7mph /  7.6km/h 9.2mph /  14.8km/h 22.5% 0in /  0.0mm
12:49 97.3 °F /  36.3 °C 52.2 °F /  11.2 °C 29.9in /  1011.5hPa Sur 4.8mph /  7.7km/h 10mph /  16.1km/h 22% 0in /  0.0mm
12:54 97.3 °F /  36.3 °C 52.2 °F /  11.2 °C 29.9in /  1011.5hPa SSE 5.4mph /  8.7km/h 10mph /  16.1km/h 22% 0in /  0.0mm
12:59 97.9 °F /  36.6 °C 51.8 °F /  11 °C 29.9in /  1011.5hPa SSO 5.2mph /  8.4km/h 8.5mph /  13.7km/h 21.4% 0in /  0.0mm
13:04 98.1 °F /  36.7 °C 52 °F /  11.1 °C 29.9in /  1011.5hPa SSO 4.3mph /  6.9km/h 9mph /  14.5km/h 21.5% 0in /  0.0mm
13:09 98.2 °F /  36.8 °C 51.6 °F /  10.9 °C 29.9in /  1011.3hPa SO 4.3mph /  7km/h 9.2mph /  14.8km/h 21% 0in /  0.0mm
13:14 98.6 °F /  37 °C 51.8 °F /  11 °C 29.9in /  1011.3hPa OSO 4.7mph /  7.6km/h 9mph /  14.5km/h 21% 0in /  0.0mm
13:19 99 °F /  37.2 °C 52 °F /  11.1 °C 29.9in /  1011.3hPa NO 4.3mph /  7km/h 5mph /  8km/h 20.8% 0in /  0.0mm
13:24 99.5 °F /  37.5 °C 50.9 °F /  10.5 °C 29.9in /  1011.3hPa NO 2.4mph /  3.9km/h 5.9mph /  9.5km/h 19.7% 0in /  0.0mm
13:29 99.9 °F /  37.7 °C 50.4 °F /  10.2 °C 29.9in /  1011.3hPa North 2.5mph /  4km/h 6.2mph /  10km/h 19% 0in /  0.0mm
13:34 100.2 °F /  37.9 °C 50.2 °F /  10.1 °C 29.9in /  1011.3hPa North 2.9mph /  4.7km/h 8.1mph /  13km/h 18.8% 0in /  0.0mm
13:39 100.2 °F /  37.9 °C 49.5 °F /  9.7 °C 29.9in /  1011.1hPa NE 3mph /  4.9km/h 8mph /  12.9km/h 18.2% 0in /  0.0mm
13:44 100 °F /  37.8 °C 49.3 °F /  9.6 °C 29.9in /  1011.1hPa NE 4mph /  6.4km/h 8.1mph /  13km/h 18.2% 0in /  0.0mm
13:49 100.6 °F /  38.1 °C 49.3 °F /  9.6 °C 29.9in /  1011.1hPa Este 3.9mph /  6.2km/h 8mph /  12.9km/h 18% 0in /  0.0mm
13:54 100.8 °F /  38.2 °C 49.8 °F /  9.9 °C 29.9in /  1010.9hPa ENE 3.1mph /  5km/h 10.4mph /  16.7km/h 18.2% 0in /  0.0mm
13:59 100.9 °F /  38.3 °C 49.8 °F /  9.9 °C 29.9in /  1010.9hPa ENE 3.3mph /  5.3km/h 10mph /  16.1km/h 18% 0in /  0.0mm
14:04 101.5 °F /  38.6 °C 50 °F /  10 °C 29.9in /  1010.9hPa SE 4mph /  6.4km/h 8mph /  12.9km/h 17.9% 0in /  0.0mm
14:09 101.7 °F /  38.7 °C 49.5 °F /  9.7 °C 29.9in /  1010.8hPa ESE 4mph /  6.4km/h 8.1mph /  13km/h 17.5% 0in /  0.0mm
14:14 101.8 °F /  38.8 °C 50.2 °F /  10.1 °C 29.9in /  1010.8hPa NE 3.6mph /  5.8km/h 8mph /  12.9km/h 17.8% 0in /  0.0mm
14:19 102 °F /  38.9 °C 49.8 °F /  9.9 °C 29.9in /  1010.8hPa ENE 3.5mph /  5.7km/h 7mph /  11.3km/h 17.6% 0in /  0.0mm
14:24 102.4 °F /  39.1 °C 50 °F /  10 °C 29.8in /  1010.7hPa North 3.1mph /  5km/h 7mph /  11.3km/h 17.5% 0in /  0.0mm
14:29 102.6 °F /  39.2 °C 49.5 °F /  9.7 °C 29.8in /  1010.7hPa ONO 3.1mph /  5km/h 7mph /  11.3km/h 17% 0in /  0.0mm
14:34 102.7 °F /  39.3 °C 49.6 °F /  9.8 °C 29.8in /  1010.7hPa ONO 3.1mph /  5km/h 5.9mph /  9.5km/h 17% 0in /  0.0mm
14:39 102.9 °F /  39.4 °C 49.8 °F /  9.9 °C 29.8in /  1010.5hPa NNE 3mph /  4.9km/h 6mph /  9.7km/h 17% 0in /  0.0mm
14:44 103.3 °F /  39.6 °C 50 °F /  10 °C 29.8in /  1010.5hPa Este 2.9mph /  4.7km/h 8.1mph /  13km/h 17% 0in /  0.0mm
14:49 103.5 °F /  39.7 °C 50.2 °F /  10.1 °C 29.8in /  1010.5hPa NE 2.9mph /  4.7km/h 8mph /  12.9km/h 17% 0in /  0.0mm
14:54 103.6 °F /  39.8 °C 50.4 °F /  10.2 °C 29.8in /  1010.4hPa ENE 2.9mph /  4.7km/h 8.1mph /  13km/h 17% 0in /  0.0mm
14:59 103.6 °F /  39.8 °C 50.4 °F /  10.2 °C 29.8in /  1010.3hPa ESE 2.9mph /  4.7km/h 8.1mph /  13km/h 17% 0in /  0.0mm
15:04 103.8 °F /  39.9 °C 50.5 °F /  10.3 °C 29.8in /  1010.3hPa ENE 3.1mph /  5km/h 8.7mph /  14km/h 17% 0in /  0.0mm
15:09 104.2 °F /  40.1 °C 50.7 °F /  10.4 °C 29.8in /  1010.2hPa NNE 3.2mph /  5.2km/h 9.7mph /  15.6km/h 17% 0in /  0.0mm
15:14 103.8 °F /  39.9 °C 50.4 °F /  10.2 °C 29.8in /  1010.1hPa NNE 4mph /  6.4km/h 10mph /  16.1km/h 17% 0in /  0.0mm
15:19 104 °F /  40 °C 50.5 °F /  10.3 °C 29.8in /  1010.1hPa NNE 4mph /  6.5km/h 8.5mph /  13.7km/h 17% 0in /  0.0mm
15:24 104.2 °F /  40.1 °C 52 °F /  11.1 °C 29.8in /  1010.0hPa Este 4.3mph /  6.9km/h 9.7mph /  15.6km/h 17.8% 0in /  0.0mm
15:29 104.4 °F /  40.2 °C 53.6 °F /  12 °C 29.8in /  1009.9hPa ESE 4.5mph /  7.3km/h 12.7mph /  20.4km/h 18.8% 0in /  0.0mm
15:34 104.2 °F /  40.1 °C 54.1 °F /  12.3 °C 29.8in /  1009.9hPa ESE 5.9mph /  9.5km/h 13mph /  20.9km/h 19.3% 0in /  0.0mm
15:39 104.2 °F /  40.1 °C 55 °F /  12.8 °C 29.8in /  1009.8hPa ESE 6.2mph /  9.9km/h 13mph /  20.9km/h 20% 0in /  0.0mm
15:44 104 °F /  40 °C 55 °F /  12.8 °C 29.8in /  1009.8hPa SSE 7.4mph /  11.9km/h 13mph /  20.9km/h 20% 0in /  0.0mm
15:49 104.2 °F /  40.1 °C 55.6 °F /  13.1 °C 29.8in /  1009.8hPa ESE 7.3mph /  11.8km/h 13mph /  20.9km/h 20.3% 0in /  0.0mm
15:54 104.2 °F /  40.1 °C 56.1 °F /  13.4 °C 29.8in /  1009.7hPa ESE 6.9mph /  11.1km/h 15.2mph /  24.5km/h 20.7% 0in /  0.0mm
15:59 103.6 °F /  39.8 °C 56.1 °F /  13.4 °C 29.8in /  1009.7hPa ESE 7.2mph /  11.6km/h 15mph /  24.1km/h 21% 0in /  0.0mm
16:04 104 °F /  40 °C 56.3 °F /  13.5 °C 29.8in /  1009.7hPa ENE 8.5mph /  13.7km/h 14mph /  22.5km/h 21% 0in /  0.0mm
16:09 104.2 °F /  40.1 °C 55.6 °F /  13.1 °C 29.8in /  1009.6hPa ESE 8.2mph /  13.2km/h 14mph /  22.5km/h 20.3% 0in /  0.0mm
16:14 104.4 °F /  40.2 °C 55.2 °F /  12.9 °C 29.8in /  1009.6hPa ESE 6.4mph /  10.3km/h 14.7mph /  23.7km/h 20% 0in /  0.0mm
16:19 104.4 °F /  40.2 °C 55.2 °F /  12.9 °C 29.8in /  1009.6hPa ESE 6.8mph /  10.9km/h 16.1mph /  25.9km/h 20% 0in /  0.0mm
16:24 104.4 °F /  40.2 °C 55.2 °F /  12.9 °C 29.8in /  1009.5hPa SE 8.5mph /  13.7km/h 16mph /  25.7km/h 20% 0in /  0.0mm
16:29 103.8 °F /  39.9 °C 55 °F /  12.8 °C 29.8in /  1009.4hPa ESE 8.3mph /  13.4km/h 13mph /  20.9km/h 20% 0in /  0.0mm
16:34 104.2 °F /  40.1 °C 55.2 °F /  12.9 °C 29.8in /  1009.4hPa ESE 7.4mph /  11.9km/h 12.7mph /  20.4km/h 20% 0in /  0.0mm
16:39 104.2 °F /  40.1 °C 55.2 °F /  12.9 °C 29.8in /  1009.2hPa SE 7.3mph /  11.8km/h 13mph /  20.9km/h 20% 0in /  0.0mm
16:44 104.5 °F /  40.3 °C 54.5 °F /  12.5 °C 29.8in /  1009.2hPa ESE 6.9mph /  11.1km/h 13mph /  20.9km/h 19.4% 0in /  0.0mm
16:49 104.5 °F /  40.3 °C 54.1 °F /  12.3 °C 29.8in /  1009.2hPa SE 7.1mph /  11.4km/h 13.8mph /  22.2km/h 19.1% 0in /  0.0mm
16:54 104.4 °F /  40.2 °C 54.5 °F /  12.5 °C 29.8in /  1009.1hPa ESE 8.1mph /  13km/h 14mph /  22.5km/h 19.5% 0in /  0.0mm
16:59 104.2 °F /  40.1 °C 54 °F /  12.2 °C 29.8in /  1009.1hPa SE 8mph /  12.8km/h 15mph /  24.1km/h 19.2% 0in /  0.0mm
17:04 104.2 °F /  40.1 °C 53.8 °F /  12.1 °C 29.8in /  1009.1hPa SE 7.4mph /  11.9km/h 15mph /  24.1km/h 19% 0in /  0.0mm
17:09 104.2 °F /  40.1 °C 54 °F /  12.2 °C 29.8in /  1009.0hPa SE 7.3mph /  11.8km/h 13.8mph /  22.2km/h 19.2% 0in /  0.0mm
17:14 104.4 °F /  40.2 °C 54 °F /  12.2 °C 29.8in /  1009.0hPa SSE 6.9mph /  11.1km/h 14mph /  22.5km/h 19% 0in /  0.0mm
17:19 104.5 °F /  40.3 °C 54 °F /  12.2 °C 29.8in /  1009.0hPa ESE 7mph /  11.2km/h 13mph /  20.9km/h 19% 0in /  0.0mm
17:24 104.4 °F /  40.2 °C 54 °F /  12.2 °C 29.8in /  1008.9hPa ESE 7.4mph /  11.9km/h 15.2mph /  24.5km/h 19% 0in /  0.0mm
17:29 104.2 °F /  40.1 °C 54.1 °F /  12.3 °C 29.8in /  1008.9hPa ESE 7.6mph /  12.3km/h 15mph /  24.1km/h 19.2% 0in /  0.0mm
17:34 104.4 °F /  40.2 °C 54 °F /  12.2 °C 29.8in /  1008.9hPa ESE 9.2mph /  14.8km/h 15mph /  24.1km/h 19% 0in /  0.0mm
17:39 104.4 °F /  40.2 °C 54.7 °F /  12.6 °C 29.8in /  1008.8hPa ESE 9.1mph /  14.7km/h 15mph /  24.1km/h 19.5% 0in /  0.0mm
17:44 104.4 °F /  40.2 °C 54 °F /  12.2 °C 29.8in /  1008.8hPa SE 8.7mph /  14km/h 14mph /  22.5km/h 19% 0in /  0.0mm
17:49 104.4 °F /  40.2 °C 54.5 °F /  12.5 °C 29.8in /  1008.8hPa ESE 8.5mph /  13.7km/h 13.8mph /  22.2km/h 19.5% 0in /  0.0mm
17:54 104.2 °F /  40.1 °C 54.1 °F /  12.3 °C 29.8in /  1008.6hPa ESE 7.6mph /  12.2km/h 14mph /  22.5km/h 19.3% 0in /  0.0mm
17:59 103.8 °F /  39.9 °C 54.3 °F /  12.4 °C 29.8in /  1008.6hPa ESE 7.8mph /  12.6km/h 13.8mph /  22.2km/h 19.5% 0in /  0.0mm
18:04 103.6 °F /  39.8 °C 53.4 °F /  11.9 °C 29.8in /  1008.6hPa ESE 8.7mph /  14km/h 16.8mph /  27km/h 19% 0in /  0.0mm
18:09 103.5 °F /  39.7 °C 54 °F /  12.2 °C 29.8in /  1008.5hPa ESE 8.9mph /  14.4km/h 17.3mph /  27.8km/h 19.5% 0in /  0.0mm
18:14 103.5 °F /  39.7 °C 54 °F /  12.2 °C 29.8in /  1008.5hPa ESE 10.2mph /  16.4km/h 17mph /  27.4km/h 19.5% 0in /  0.0mm
18:19 103.5 °F /  39.7 °C 54.7 °F /  12.6 °C 29.8in /  1008.5hPa ESE 9.8mph /  15.7km/h 13mph /  20.9km/h 20% 0in /  0.0mm
18:24 103.8 °F /  39.9 °C 54.9 °F /  12.7 °C 29.8in /  1008.4hPa SE 6.9mph /  11.1km/h 11.5mph /  18.5km/h 19.9% 0in /  0.0mm
18:29 103.8 °F /  39.9 °C 54.5 °F /  12.5 °C 29.8in /  1008.4hPa ESE 6.9mph /  11.1km/h 12mph /  19.3km/h 19.7% 0in /  0.0mm
18:34 103.8 °F /  39.9 °C 54.7 °F /  12.6 °C 29.8in /  1008.4hPa SE 6.9mph /  11.1km/h 10.7mph /  17.2km/h 19.9% 0in /  0.0mm
18:39 104 °F /  40 °C 54.1 °F /  12.3 °C 29.8in /  1008.4hPa ESE 6.7mph /  10.8km/h 11mph /  17.7km/h 19.4% 0in /  0.0mm
18:44 104 °F /  40 °C 56.1 °F /  13.4 °C 29.8in /  1008.4hPa ESE 5.4mph /  8.7km/h 12.7mph /  20.4km/h 20.8% 0in /  0.0mm
18:49 103.5 °F /  39.7 °C 56.1 °F /  13.4 °C 29.8in /  1008.4hPa ESE 5.8mph /  9.3km/h 13mph /  20.9km/h 21.2% 0in /  0.0mm
18:54 102.9 °F /  39.4 °C 57 °F /  13.9 °C 29.8in /  1008.4hPa ESE 7.6mph /  12.2km/h 15mph /  24.1km/h 22.2% 0in /  0.0mm
18:59 102.7 °F /  39.3 °C 57.7 °F /  14.3 °C 29.8in /  1008.4hPa ESE 7.8mph /  12.5km/h 15mph /  24.1km/h 23% 0in /  0.0mm
19:04 102.6 °F /  39.2 °C 57.7 °F /  14.3 °C 29.8in /  1008.4hPa ESE 8.5mph /  13.7km/h 12mph /  19.3km/h 23% 0in /  0.0mm
19:09 102.7 °F /  39.3 °C 57.7 °F /  14.3 °C 29.8in /  1008.3hPa ESE 8.1mph /  13.1km/h 11mph /  17.7km/h 23% 0in /  0.0mm
19:14 102.6 °F /  39.2 °C 58.3 °F /  14.6 °C 29.8in /  1008.3hPa ESE 6.4mph /  10.3km/h 13.8mph /  22.2km/h 23.6% 0in /  0.0mm
19:19 102 °F /  38.9 °C 58.5 °F /  14.7 °C 29.8in /  1008.3hPa ESE 6.6mph /  10.6km/h 14mph /  22.5km/h 24% 0in /  0.0mm
19:24 101.8 °F /  38.8 °C 58.3 °F /  14.6 °C 29.8in /  1008.2hPa ESE 7.6mph /  12.2km/h 13mph /  20.9km/h 24% 0in /  0.0mm
19:29 101.8 °F /  38.8 °C 58.3 °F /  14.6 °C 29.8in /  1008.2hPa ESE 7.5mph /  12km/h 12mph /  19.3km/h 24% 0in /  0.0mm
19:34 101.8 °F /  38.8 °C 58.3 °F /  14.6 °C 29.8in /  1008.3hPa ESE 6.4mph /  10.3km/h 9mph /  14.5km/h 24% 0in /  0.0mm
19:39 101.8 °F /  38.8 °C 58.3 °F /  14.6 °C 29.8in /  1008.3hPa ESE 6.2mph /  10km/h 8.1mph /  13km/h 24% 0in /  0.0mm
19:44 101.8 °F /  38.8 °C 58.3 °F /  14.6 °C 29.8in /  1008.3hPa ESE 5.2mph /  8.4km/h 10.4mph /  16.7km/h 24% 0in /  0.0mm
19:49 101.7 °F /  38.7 °C 58.1 °F /  14.5 °C 29.8in /  1008.3hPa ESE 5.3mph /  8.5km/h 10mph /  16.1km/h 24% 0in /  0.0mm
19:54 101.5 °F /  38.6 °C 58.1 °F /  14.5 °C 29.8in /  1008.2hPa ESE 5.9mph /  9.5km/h 9mph /  14.5km/h 24% 0in /  0.0mm
19:59 101.3 °F /  38.5 °C 58.1 °F /  14.5 °C 29.8in /  1008.2hPa ESE 5.6mph /  9km/h 7mph /  11.3km/h 24.3% 0in /  0.0mm
20:04 100.9 °F /  38.3 °C 58.6 °F /  14.8 °C 29.8in /  1008.2hPa ESE 4.3mph /  6.9km/h 8.1mph /  13km/h 25% 0in /  0.0mm
20:09 100.6 °F /  38.1 °C 58.5 °F /  14.7 °C 29.8in /  1008.2hPa ESE 4.5mph /  7.2km/h 8.5mph /  13.7km/h 25.1% 0in /  0.0mm
20:14 100 °F /  37.8 °C 59 °F /  15 °C 29.8in /  1008.2hPa ESE 5.2mph /  8.4km/h 9mph /  14.5km/h 26% 0in /  0.0mm
20:19 99.5 °F /  37.5 °C 59.4 °F /  15.2 °C 29.8in /  1008.4hPa ESE 5.3mph /  8.6km/h 11.5mph /  18.5km/h 26.8% 0in /  0.0mm
20:24 99.1 °F /  37.3 °C 59.2 °F /  15.1 °C 29.8in /  1008.4hPa ESE 6.4mph /  10.3km/h 12mph /  19.3km/h 27% 0in /  0.0mm
20:29 98.8 °F /  37.1 °C 59.5 °F /  15.3 °C 29.8in /  1008.4hPa Este 6.3mph /  10.1km/h 9mph /  14.5km/h 27.5% 0in /  0.0mm
20:34 98.4 °F /  36.9 °C 59.7 °F /  15.4 °C 29.8in /  1008.5hPa Este 5.4mph /  8.7km/h 8mph /  12.9km/h 28% 0in /  0.0mm
20:39 98.2 °F /  36.8 °C 59.5 °F /  15.3 °C 29.8in /  1008.5hPa ESE 5.2mph /  8.4km/h 7mph /  11.3km/h 28% 0in /  0.0mm
20:44 98.2 °F /  36.8 °C 59.7 °F /  15.4 °C 29.8in /  1008.5hPa ESE 4.3mph /  6.9km/h 8.1mph /  13km/h 28.2% 0in /  0.0mm
20:49 98.1 °F /  36.7 °C 60.3 °F /  15.7 °C 29.8in /  1008.6hPa ESE 4.3mph /  7km/h 8mph /  12.9km/h 29% 0in /  0.0mm
20:54 97.7 °F /  36.5 °C 60.1 °F /  15.6 °C 29.8in /  1008.6hPa ESE 4.7mph /  7.6km/h 8.1mph /  13km/h 29% 0in /  0.0mm
20:59 97.3 °F /  36.3 °C 59.7 °F /  15.4 °C 29.8in /  1008.6hPa ESE 4.7mph /  7.6km/h 8mph /  12.9km/h 29% 0in /  0.0mm
21:04 97 °F /  36.1 °C 59.9 °F /  15.5 °C 29.8in /  1008.8hPa ESE 4.7mph /  7.6km/h 8.1mph /  13km/h 29.5% 0in /  0.0mm
21:09 96.6 °F /  35.9 °C 60.1 °F /  15.6 °C 29.8in /  1008.8hPa NNE 4.7mph /  7.5km/h 8mph /  12.9km/h 30% 0in /  0.0mm
21:14 96.3 °F /  35.7 °C 59.9 °F /  15.5 °C 29.8in /  1008.8hPa North 4.3mph /  6.9km/h 7mph /  11.3km/h 30% 0in /  0.0mm
21:19 96.1 °F /  35.6 °C 59.5 °F /  15.3 °C 29.8in /  1009.2hPa North 4.2mph /  6.8km/h 9.2mph /  14.8km/h 30.1% 0in /  0.0mm
21:24 95.4 °F /  35.2 °C 59.2 °F /  15.1 °C 29.8in /  1009.2hPa NNE 3.6mph /  5.8km/h 9mph /  14.5km/h 30% 0in /  0.0mm
21:29 94.6 °F /  34.8 °C 60.1 °F /  15.6 °C 29.8in /  1009.2hPa NNE 3.9mph /  6.2km/h 10.4mph /  16.7km/h 31.8% 0in /  0.0mm
21:34 93.9 °F /  34.4 °C 63 °F /  17.2 °C 29.8in /  1009.5hPa NNE 5.2mph /  8.4km/h 15mph /  24.1km/h 36.2% 0in /  0.0mm
21:39 92.8 °F /  33.8 °C 65.1 °F /  18.4 °C 29.8in /  1009.5hPa NE 5.6mph /  9km/h 15mph /  24.1km/h 40% 0in /  0.0mm
21:44 92.1 °F /  33.4 °C 66.4 °F /  19.1 °C 29.8in /  1009.5hPa NE 7.6mph /  12.2km/h 10.7mph /  17.2km/h 43% 0in /  0.0mm
21:49 91.6 °F /  33.1 °C 67.3 °F /  19.6 °C 29.8in /  1009.8hPa NE 7.4mph /  11.9km/h 11mph /  17.7km/h 45.3% 0in /  0.0mm
21:54 90.9 °F /  32.7 °C 68 °F /  20 °C 29.8in /  1009.8hPa NE 6.2mph /  10km/h 11mph /  17.7km/h 47.3% 0in /  0.0mm
21:59 90.5 °F /  32.5 °C 68.4 °F /  20.2 °C 29.8in /  1009.8hPa NE 6mph /  9.7km/h 9.2mph /  14.8km/h 48.4% 0in /  0.0mm
22:04 90.1 °F /  32.3 °C 68.4 °F /  20.2 °C 29.8in /  1010.1hPa NE 5.2mph /  8.4km/h 9mph /  14.5km/h 49% 0in /  0.0mm
22:09 90 °F /  32.2 °C 68.5 °F /  20.3 °C 29.8in /  1010.1hPa NE 5mph /  8.1km/h 7mph /  11.3km/h 49.7% 0in /  0.0mm
22:14 89.6 °F /  32 °C 68.5 °F /  20.3 °C 29.8in /  1010.1hPa NNE 4.3mph /  6.9km/h 7mph /  11.3km/h 50% 0in /  0.0mm
22:19 89.2 °F /  31.8 °C 68.5 °F /  20.3 °C 29.8in /  1010.4hPa NNE 4.3mph /  6.9km/h 8.1mph /  13km/h 50.6% 0in /  0.0mm
22:24 89.1 °F /  31.7 °C 68.7 °F /  20.4 °C 29.8in /  1010.4hPa North 4mph /  6.5km/h 8mph /  12.9km/h 51.4% 0in /  0.0mm
22:29 88.9 °F /  31.6 °C 69.4 °F /  20.8 °C 29.8in /  1010.4hPa NO 4mph /  6.5km/h 8mph /  12.9km/h 52.8% 0in /  0.0mm
22:34 88.5 °F /  31.4 °C 70 °F /  21.1 °C 29.9in /  1010.8hPa NO 4mph /  6.5km/h 7mph /  11.3km/h 54.5% 0in /  0.0mm
22:39 88.2 °F /  31.2 °C 70 °F /  21.1 °C 29.9in /  1010.8hPa NNO 3.9mph /  6.3km/h 6mph /  9.7km/h 55% 0in /  0.0mm
22:44 88 °F /  31.1 °C 69.8 °F /  21 °C 29.9in /  1010.8hPa NNO 3.1mph /  5km/h 5mph /  8km/h 55.1% 0in /  0.0mm
22:49 87.8 °F /  31 °C 70 °F /  21.1 °C 29.9in /  1011.1hPa NO 3mph /  4.8km/h 5.4mph /  8.7km/h 55.8% 0in /  0.0mm
22:54 87.6 °F /  30.9 °C 70.3 °F /  21.3 °C 29.9in /  1011.1hPa NNO 2.4mph /  3.9km/h 6mph /  9.7km/h 56.7% 0in /  0.0mm
22:59 87.4 °F /  30.8 °C 70.5 °F /  21.4 °C 29.9in /  1011.1hPa North 2.5mph /  4.1km/h 6mph /  9.7km/h 57.6% 0in /  0.0mm
23:04 87.3 °F /  30.7 °C 70.7 °F /  21.5 °C 29.9in /  1011.1hPa NNE 3.1mph /  5km/h 6mph /  9.7km/h 58% 0in /  0.0mm
23:09 87.1 °F /  30.6 °C 70.9 °F /  21.6 °C 29.9in /  1011.1hPa NNO 3mph /  4.8km/h 5.8mph /  9.3km/h 58.9% 0in /  0.0mm
23:14 86.7 °F /  30.4 °C 71.2 °F /  21.8 °C 29.9in /  1011.1hPa NNO 2.4mph /  3.9km/h 6mph /  9.7km/h 60.1% 0in /  0.0mm
23:19 86.5 °F /  30.3 °C 71.4 °F /  21.9 °C 29.9in /  1011.2hPa NNO 2.4mph /  3.8km/h 5.2mph /  8.4km/h 61.1% 0in /  0.0mm
23:24 86.2 °F /  30.1 °C 71.6 °F /  22 °C 29.9in /  1011.2hPa North 2mph /  3.2km/h 5.9mph /  9.5km/h 62% 0in /  0.0mm
23:29 85.6 °F /  29.8 °C 71.8 °F /  22.1 °C 29.9in /  1011.2hPa ENE 2.3mph /  3.7km/h 6.9mph /  11.1km/h 63.1% 0in /  0.0mm
23:34 85.5 °F /  29.7 °C 72 °F /  22.2 °C 29.9in /  1011.3hPa Oeste 4mph /  6.4km/h 7mph /  11.3km/h 64% 0in /  0.0mm
23:39 85.5 °F /  29.7 °C 71.8 °F /  22.1 °C 29.9in /  1011.3hPa NE 4mph /  6.4km/h 8.5mph /  13.7km/h 64% 0in /  0.0mm
23:44 85.3 °F /  29.6 °C 71.8 °F /  22.1 °C 29.9in /  1011.3hPa NNO 3.6mph /  5.8km/h 9mph /  14.5km/h 64% 0in /  0.0mm
23:49 85.3 °F /  29.6 °C 71.6 °F /  22 °C 29.9in /  1011.3hPa North 3.4mph /  5.5km/h 5mph /  8km/h 64% 0in /  0.0mm
23:54 85.1 °F /  29.5 °C 71.8 °F /  22.1 °C 29.9in /  1011.2hPa NNO 2.4mph /  3.9km/h 5mph /  8km/h 64.8% 0in /  0.0mm
23:59 84.9 °F /  29.4 °C 71.8 °F /  22.1 °C 29.9in /  1011.2hPa NNO 2.3mph /  3.7km/h 5mph /  8km/h 65% 0in /  0.0mm
Murcia-Puente Tocinos, España
Compliments of Weather Underground - 3 mb

La estación de MeteoMurcia.com, publica sus datos en los siguientes proyectos:

Weather Underground PWS IMURCIAP2 Meteoclimatic www.awekas.at

W3Counter
Web Analytics